sensor_id;sensor_type;location;lat;lon;timestamp;pressure;altitude;pressure_sealevel;temperature;humidity
28000;BME280;15328;50.860;10.562;2022-10-17T00:02:55;97000.63;;;17.37;66.67
28000;BME280;15328;50.860;10.562;2022-10-17T00:07:55;96997.56;;;17.28;67.11
28000;BME280;15328;50.860;10.562;2022-10-17T00:12:56;97008.38;;;17.33;66.71
28000;BME280;15328;50.860;10.562;2022-10-17T00:17:56;97006.75;;;17.32;66.67
28000;BME280;15328;50.860;10.562;2022-10-17T00:22:56;97008.38;;;17.33;66.40
28000;BME280;15328;50.860;10.562;2022-10-17T00:27:57;97026.88;;;17.29;66.29
28000;BME280;15328;50.860;10.562;2022-10-17T00:32:57;97027.09;;;17.45;65.84
28000;BME280;15328;50.860;10.562;2022-10-17T00:37:57;97028.22;;;17.49;65.36
28000;BME280;15328;50.860;10.562;2022-10-17T00:42:58;97027.72;;;17.52;65.00
28000;BME280;15328;50.860;10.562;2022-10-17T00:48:04;97024.81;;;17.53;64.74
28000;BME280;15328;50.860;10.562;2022-10-17T00:53:08;97017.06;;;17.57;64.53
28000;BME280;15328;50.860;10.562;2022-10-17T00:58:09;97020.88;;;17.61;64.52
28000;BME280;15328;50.860;10.562;2022-10-17T01:03:09;97021.13;;;17.59;64.26
28000;BME280;15328;50.860;10.562;2022-10-17T01:08:10;97033.59;;;17.49;64.14
28000;BME280;15328;50.860;10.562;2022-10-17T01:13:35;97028.22;;;17.49;64.22
28000;BME280;15328;50.860;10.562;2022-10-17T01:35:19;97040.94;;;17.70;63.65
28000;BME280;15328;50.860;10.562;2022-10-17T01:40:26;97039.41;;;17.41;64.10
28000;BME280;15328;50.860;10.562;2022-10-17T01:45:43;97045.09;;;17.61;63.53
28000;BME280;15328;50.860;10.562;2022-10-17T01:50:50;97029.13;;;17.54;63.31
28000;BME280;15328;50.860;10.562;2022-10-17T01:55:54;97035.44;;;17.65;63.35
28000;BME280;15328;50.860;10.562;2022-10-17T02:00:57;97034.72;;;17.70;62.96
28000;BME280;15328;50.860;10.562;2022-10-17T02:06:00;97031.47;;;17.68;63.32
28000;BME280;15328;50.860;10.562;2022-10-17T02:11:04;97033.75;;;17.59;63.08
28000;BME280;15328;50.860;10.562;2022-10-17T02:16:32;97025.69;;;17.59;63.12
28000;BME280;15328;50.860;10.562;2022-10-17T02:21:43;97039.47;;;17.46;63.41
28000;BME280;15328;50.860;10.562;2022-10-17T02:27:00;97040.78;;;17.60;63.32
28000;BME280;15328;50.860;10.562;2022-10-17T02:32:11;97042.25;;;17.34;63.98
28000;BME280;15328;50.860;10.562;2022-10-17T02:37:15;97034.66;;;17.48;63.28
28000;BME280;15328;50.860;10.562;2022-10-17T02:42:20;97036.28;;;17.49;63.07
28000;BME280;15328;50.860;10.562;2022-10-17T02:47:26;97047.97;;;17.54;63.12
28000;BME280;15328;50.860;10.562;2022-10-17T02:52:44;97043.94;;;17.57;62.91
28000;BME280;15328;50.860;10.562;2022-10-17T02:57:52;97058.63;;;17.49;63.23
28000;BME280;15328;50.860;10.562;2022-10-17T03:02:53;97041.00;;;17.58;62.67
28000;BME280;15328;50.860;10.562;2022-10-17T03:07:54;97044.91;;;17.51;62.71
28000;BME280;15328;50.860;10.562;2022-10-17T03:12:55;97048.34;;;17.63;62.28
28000;BME280;15328;50.860;10.562;2022-10-17T03:17:56;97049.66;;;17.44;63.00
28000;BME280;15328;50.860;10.562;2022-10-17T03:22:56;97051.28;;;17.45;62.96
28000;BME280;15328;50.860;10.562;2022-10-17T03:27:58;97046.31;;;17.53;62.65
28000;BME280;15328;50.860;10.562;2022-10-17T03:32:59;97055.78;;;17.56;62.67
28000;BME280;15328;50.860;10.562;2022-10-17T03:38:00;97050.53;;;17.49;63.02
28000;BME280;15328;50.860;10.562;2022-10-17T03:43:00;97057.66;;;17.55;62.46
28000;BME280;15328;50.860;10.562;2022-10-17T03:48:00;97064.66;;;17.56;62.25
28000;BME280;15328;50.860;10.562;2022-10-17T03:53:01;97066.78;;;17.54;62.67
28000;BME280;15328;50.860;10.562;2022-10-17T03:58:01;97068.56;;;17.49;62.29
28000;BME280;15328;50.860;10.562;2022-10-17T04:03:01;97067.66;;;17.60;62.23
28000;BME280;15328;50.860;10.562;2022-10-17T04:08:02;97066.09;;;17.64;61.90
28000;BME280;15328;50.860;10.562;2022-10-17T04:13:02;97070.91;;;17.62;62.13
28000;BME280;15328;50.860;10.562;2022-10-17T04:18:02;97063.41;;;17.64;61.67
28000;BME280;15328;50.860;10.562;2022-10-17T04:23:03;97065.47;;;17.74;61.66
28000;BME280;15328;50.860;10.562;2022-10-17T04:28:03;97076.22;;;17.74;61.38
28000;BME280;15328;50.860;10.562;2022-10-17T04:33:03;97068.31;;;17.67;61.20
28000;BME280;15328;50.860;10.562;2022-10-17T04:38:04;97066.78;;;17.71;61.14
28000;BME280;15328;50.860;10.562;2022-10-17T04:43:04;97073.94;;;17.66;60.96
28000;BME280;15328;50.860;10.562;2022-10-17T04:48:04;97060.06;;;17.74;60.94
28000;BME280;15328;50.860;10.562;2022-10-17T04:53:05;97054.88;;;17.67;60.88
28000;BME280;15328;50.860;10.562;2022-10-17T04:58:05;97057.28;;;17.85;60.37
28000;BME280;15328;50.860;10.562;2022-10-17T05:03:05;97060.88;;;17.91;59.97
28000;BME280;15328;50.860;10.562;2022-10-17T05:08:07;97066.19;;;17.86;59.74
28000;BME280;15328;50.860;10.562;2022-10-17T05:13:09;97062.28;;;17.99;59.30
28000;BME280;15328;50.860;10.562;2022-10-17T05:18:09;97076.13;;;18.07;58.94
28000;BME280;15328;50.860;10.562;2022-10-17T05:23:10;97088.56;;;18.08;59.07
28000;BME280;15328;50.860;10.562;2022-10-17T05:28:10;97093.78;;;17.98;59.05
28000;BME280;15328;50.860;10.562;2022-10-17T05:33:11;97092.69;;;18.16;58.54
28000;BME280;15328;50.860;10.562;2022-10-17T05:38:11;97104.31;;;18.21;58.30
28000;BME280;15328;50.860;10.562;2022-10-17T05:43:11;97089.09;;;18.32;58.11
28000;BME280;15328;50.860;10.562;2022-10-17T05:48:12;97095.75;;;18.25;58.28
28000;BME280;15328;50.860;10.562;2022-10-17T05:53:12;97084.88;;;18.36;58.04
28000;BME280;15328;50.860;10.562;2022-10-17T05:58:12;97083.47;;;18.34;58.22
28000;BME280;15328;50.860;10.562;2022-10-17T06:03:13;97083.34;;;18.45;57.81
28000;BME280;15328;50.860;10.562;2022-10-17T06:08:13;97073.59;;;18.39;57.97
28000;BME280;15328;50.860;10.562;2022-10-17T06:13:17;97095.53;;;18.31;57.93
28000;BME280;15328;50.860;10.562;2022-10-17T06:18:18;97096.50;;;18.42;57.85
28000;BME280;15328;50.860;10.562;2022-10-17T06:23:18;97107.94;;;18.32;57.80
28000;BME280;15328;50.860;10.562;2022-10-17T06:28:18;97120.34;;;18.33;57.96
28000;BME280;15328;50.860;10.562;2022-10-17T06:33:19;97123.13;;;18.38;57.92
28000;BME280;15328;50.860;10.562;2022-10-17T06:38:20;97133.13;;;18.21;58.20
28000;BME280;15328;50.860;10.562;2022-10-17T06:43:21;97131.81;;;18.23;58.38
28000;BME280;15328;50.860;10.562;2022-10-17T06:48:21;97122.41;;;18.26;58.31
28000;BME280;15328;50.860;10.562;2022-10-17T06:53:22;97116.97;;;18.21;58.59
28000;BME280;15328;50.860;10.562;2022-10-17T06:58:24;97130.25;;;18.28;58.48
28000;BME280;15328;50.860;10.562;2022-10-17T07:03:24;97125.94;;;18.27;58.57
28000;BME280;15328;50.860;10.562;2022-10-17T07:08:25;97128.50;;;18.16;58.74
28000;BME280;15328;50.860;10.562;2022-10-17T07:13:25;97130.19;;;18.22;58.68
28000;BME280;15328;50.860;10.562;2022-10-17T07:18:25;97137.25;;;18.29;58.58
28000;BME280;15328;50.860;10.562;2022-10-17T07:23:26;97144.94;;;18.37;58.54
28000;BME280;15328;50.860;10.562;2022-10-17T07:28:27;97151.75;;;18.44;58.38
28000;BME280;15328;50.860;10.562;2022-10-17T07:33:27;97148.97;;;18.61;58.20
28000;BME280;15328;50.860;10.562;2022-10-17T07:38:28;97131.09;;;18.72;57.88
28000;BME280;15328;50.860;10.562;2022-10-17T07:43:29;97142.03;;;18.87;57.15
28000;BME280;15328;50.860;10.562;2022-10-17T07:48:30;97139.44;;;18.97;56.69
28000;BME280;15328;50.860;10.562;2022-10-17T07:53:31;97146.31;;;19.10;56.25
28000;BME280;15328;50.860;10.562;2022-10-17T07:58:31;97165.09;;;19.27;55.79
28000;BME280;15328;50.860;10.562;2022-10-17T08:03:31;97155.50;;;19.14;55.65
28000;BME280;15328;50.860;10.562;2022-10-17T08:08:32;97150.63;;;19.38;55.52
28000;BME280;15328;50.860;10.562;2022-10-17T08:13:32;97150.91;;;19.68;54.87
28000;BME280;15328;50.860;10.562;2022-10-17T08:18:34;97147.66;;;20.03;54.17
28000;BME280;15328;50.860;10.562;2022-10-17T08:23:35;97157.41;;;20.10;52.84
28000;BME280;15328;50.860;10.562;2022-10-17T08:28:38;97156.16;;;20.27;52.56
28000;BME280;15328;50.860;10.562;2022-10-17T08:33:39;97154.97;;;20.08;52.40
28000;BME280;15328;50.860;10.562;2022-10-17T08:38:40;97154.72;;;20.57;52.43
28000;BME280;15328;50.860;10.562;2022-10-17T08:49:01;97158.13;;;21.20;50.32
28000;BME280;15328;50.860;10.562;2022-10-17T08:54:14;97164.16;;;21.57;49.33
28000;BME280;15328;50.860;10.562;2022-10-17T08:59:27;97165.50;;;22.16;48.70
28000;BME280;15328;50.860;10.562;2022-10-17T09:15:27;97163.81;;;24.70;44.17
28000;BME280;15328;50.860;10.562;2022-10-17T09:20:33;97159.16;;;25.88;39.91
28000;BME280;15328;50.860;10.562;2022-10-17T09:25:55;97156.84;;;27.47;37.63
28000;BME280;15328;50.860;10.562;2022-10-17T09:36:26;97157.25;;;30.97;30.88
28000;BME280;15328;50.860;10.562;2022-10-17T09:41:43;97165.56;;;32.14;29.00
28000;BME280;15328;50.860;10.562;2022-10-17T09:46:54;97168.34;;;33.20;27.09
28000;BME280;15328;50.860;10.562;2022-10-17T09:51:57;97181.47;;;34.19;24.95
28000;BME280;15328;50.860;10.562;2022-10-17T09:57:06;97158.75;;;34.54;24.91
28000;BME280;15328;50.860;10.562;2022-10-17T10:02:16;97175.81;;;33.72;24.63
28000;BME280;15328;50.860;10.562;2022-10-17T10:07:17;97167.63;;;32.62;25.27
28000;BME280;15328;50.860;10.562;2022-10-17T10:12:40;97169.66;;;31.54;27.15
28000;BME280;15328;50.860;10.562;2022-10-17T10:17:40;97158.25;;;30.55;27.96
28000;BME280;15328;50.860;10.562;2022-10-17T10:22:41;97167.75;;;29.93;29.26
28000;BME280;15328;50.860;10.562;2022-10-17T10:27:43;97157.84;;;28.97;30.46
28000;BME280;15328;50.860;10.562;2022-10-17T10:32:46;97169.94;;;28.56;32.05
28000;BME280;15328;50.860;10.562;2022-10-17T10:37:53;97166.66;;;28.15;33.15
28000;BME280;15328;50.860;10.562;2022-10-17T10:42:59;97165.41;;;27.54;34.32
28000;BME280;15328;50.860;10.562;2022-10-17T10:48:02;97177.78;;;27.37;35.08
28000;BME280;15328;50.860;10.562;2022-10-17T11:03:55;97168.16;;;27.18;35.63
28000;BME280;15328;50.860;10.562;2022-10-17T11:09:05;97184.66;;;27.49;34.97
28000;BME280;15328;50.860;10.562;2022-10-17T11:14:41;97168.63;;;27.69;34.48
28000;BME280;15328;50.860;10.562;2022-10-17T11:19:55;97167.59;;;27.65;33.57
28000;BME280;15328;50.860;10.562;2022-10-17T11:30:13;97173.34;;;27.42;34.52
28000;BME280;15328;50.860;10.562;2022-10-17T11:35:27;97172.94;;;27.34;33.65
28000;BME280;15328;50.860;10.562;2022-10-17T11:40:35;97175.22;;;27.05;34.80
28000;BME280;15328;50.860;10.562;2022-10-17T11:45:44;97167.75;;;27.10;34.39
28000;BME280;15328;50.860;10.562;2022-10-17T11:50:50;97179.88;;;27.54;34.93
28000;BME280;15328;50.860;10.562;2022-10-17T11:55:55;97161.63;;;27.41;34.70
28000;BME280;15328;50.860;10.562;2022-10-17T12:01:21;97175.53;;;27.17;35.07
28000;BME280;15328;50.860;10.562;2022-10-17T12:06:47;97174.19;;;27.64;35.00
28000;BME280;15328;50.860;10.562;2022-10-17T12:11:55;97183.53;;;27.50;34.49
28000;BME280;15328;50.860;10.562;2022-10-17T12:16:56;97153.13;;;27.87;34.48
28000;BME280;15328;50.860;10.562;2022-10-17T12:21:59;97150.66;;;27.99;34.44
28000;BME280;15328;50.860;10.562;2022-10-17T12:43:31;97164.72;;;28.15;34.17
28000;BME280;15328;50.860;10.562;2022-10-17T12:53:53;97175.59;;;28.60;34.63
28000;BME280;15328;50.860;10.562;2022-10-17T12:58:57;97168.34;;;28.24;33.84
28000;BME280;15328;50.860;10.562;2022-10-17T13:03:58;97169.91;;;28.48;34.21
28000;BME280;15328;50.860;10.562;2022-10-17T13:09:08;97188.00;;;28.66;33.83
28000;BME280;15328;50.860;10.562;2022-10-17T13:14:16;97169.78;;;28.53;33.19
28000;BME280;15328;50.860;10.562;2022-10-17T13:19:19;97184.94;;;28.28;33.47
28000;BME280;15328;50.860;10.562;2022-10-17T13:24:32;97194.22;;;27.74;34.04
28000;BME280;15328;50.860;10.562;2022-10-17T13:29:33;97212.72;;;27.40;34.53
28000;BME280;15328;50.860;10.562;2022-10-17T13:34:34;97186.56;;;26.71;34.72
28000;BME280;15328;50.860;10.562;2022-10-17T13:39:38;97182.19;;;26.56;36.03
28000;BME280;15328;50.860;10.562;2022-10-17T13:44:39;97191.38;;;26.33;36.27
28000;BME280;15328;50.860;10.562;2022-10-17T13:49:41;97205.00;;;26.33;36.34
28000;BME280;15328;50.860;10.562;2022-10-17T13:54:44;97197.63;;;26.33;35.86
28000;BME280;15328;50.860;10.562;2022-10-17T13:59:47;97203.13;;;26.14;35.94
28000;BME280;15328;50.860;10.562;2022-10-17T14:10:31;97203.53;;;25.75;37.45
28000;BME280;15328;50.860;10.562;2022-10-17T14:15:35;97199.94;;;25.75;37.37
28000;BME280;15328;50.860;10.562;2022-10-17T14:20:36;97213.97;;;25.68;37.81
28000;BME280;15328;50.860;10.562;2022-10-17T14:25:38;97194.28;;;25.15;37.76
28000;BME280;15328;50.860;10.562;2022-10-17T14:30:42;97208.34;;;24.98;38.81
28000;BME280;15328;50.860;10.562;2022-10-17T14:35:53;97216.03;;;24.91;39.51
28000;BME280;15328;50.860;10.562;2022-10-17T14:40:58;97211.47;;;24.86;39.26
28000;BME280;15328;50.860;10.562;2022-10-17T14:46:00;97215.34;;;24.56;39.66
28000;BME280;15328;50.860;10.562;2022-10-17T14:51:08;97219.59;;;24.44;40.73
28000;BME280;15328;50.860;10.562;2022-10-17T14:56:25;97228.94;;;24.32;40.53
28000;BME280;15328;50.860;10.562;2022-10-17T15:01:25;97235.81;;;24.20;41.06
28000;BME280;15328;50.860;10.562;2022-10-17T15:06:30;97238.41;;;24.01;41.60
28000;BME280;15328;50.860;10.562;2022-10-17T15:11:31;97238.56;;;23.86;42.09
28000;BME280;15328;50.860;10.562;2022-10-17T15:16:33;97240.28;;;23.71;42.51
28000;BME280;15328;50.860;10.562;2022-10-17T15:21:34;97239.22;;;23.67;42.66
28000;BME280;15328;50.860;10.562;2022-10-17T15:26:35;97242.56;;;23.49;43.22
28000;BME280;15328;50.860;10.562;2022-10-17T15:31:36;97245.41;;;23.29;43.88
28000;BME280;15328;50.860;10.562;2022-10-17T15:36:47;97250.09;;;23.13;44.53
28000;BME280;15328;50.860;10.562;2022-10-17T15:41:48;97247.13;;;23.09;44.97
28000;BME280;15328;50.860;10.562;2022-10-17T15:46:48;97253.94;;;22.97;44.82
28000;BME280;15328;50.860;10.562;2022-10-17T15:51:49;97276.75;;;22.91;44.79
28000;BME280;15328;50.860;10.562;2022-10-17T15:56:52;97266.72;;;22.71;45.17
28000;BME280;15328;50.860;10.562;2022-10-17T16:01:53;97271.94;;;22.57;45.77
28000;BME280;15328;50.860;10.562;2022-10-17T16:06:54;97268.97;;;22.43;46.43
28000;BME280;15328;50.860;10.562;2022-10-17T16:11:54;97285.25;;;22.28;47.31
28000;BME280;15328;50.860;10.562;2022-10-17T16:16:55;97293.09;;;22.14;47.32
28000;BME280;15328;50.860;10.562;2022-10-17T16:21:56;97299.03;;;21.96;47.48
28000;BME280;15328;50.860;10.562;2022-10-17T16:26:57;97296.56;;;21.84;48.10
28000;BME280;15328;50.860;10.562;2022-10-17T16:31:57;97306.84;;;21.67;48.53
28000;BME280;15328;50.860;10.562;2022-10-17T16:36:57;97307.63;;;21.57;48.61
28000;BME280;15328;50.860;10.562;2022-10-17T16:41:58;97306.53;;;21.53;48.86
28000;BME280;15328;50.860;10.562;2022-10-17T16:46:58;97317.06;;;21.50;49.06
28000;BME280;15328;50.860;10.562;2022-10-17T16:51:59;97318.69;;;21.46;49.21
28000;BME280;15328;50.860;10.562;2022-10-17T16:57:00;97323.13;;;21.10;50.93
28000;BME280;15328;50.860;10.562;2022-10-17T17:02:01;97327.53;;;21.26;50.27
28000;BME280;15328;50.860;10.562;2022-10-17T17:07:01;97346.16;;;21.17;50.88
28000;BME280;15328;50.860;10.562;2022-10-17T17:12:02;97355.94;;;21.23;50.68
28000;BME280;15328;50.860;10.562;2022-10-17T17:17:02;97346.16;;;21.17;50.66
28000;BME280;15328;50.860;10.562;2022-10-17T17:22:02;97352.81;;;21.05;51.06
28000;BME280;15328;50.860;10.562;2022-10-17T17:27:03;97360.38;;;21.03;51.29
28000;BME280;15328;50.860;10.562;2022-10-17T17:32:03;97360.09;;;20.99;51.40
28000;BME280;15328;50.860;10.562;2022-10-17T17:37:04;97361.41;;;20.91;51.59
28000;BME280;15328;50.860;10.562;2022-10-17T17:42:04;97371.59;;;20.79;52.02
28000;BME280;15328;50.860;10.562;2022-10-17T17:47:04;97376.13;;;20.68;52.19
28000;BME280;15328;50.860;10.562;2022-10-17T17:52:05;97388.41;;;20.49;52.87
28000;BME280;15328;50.860;10.562;2022-10-17T17:57:05;97392.88;;;20.38;53.21
28000;BME280;15328;50.860;10.562;2022-10-17T18:02:06;97388.16;;;20.24;53.23
28000;BME280;15328;50.860;10.562;2022-10-17T18:07:07;97397.44;;;20.06;53.90
28000;BME280;15328;50.860;10.562;2022-10-17T18:12:08;97403.41;;;19.81;54.54
28000;BME280;15328;50.860;10.562;2022-10-17T18:17:08;97398.69;;;19.71;54.89
28000;BME280;15328;50.860;10.562;2022-10-17T18:22:09;97399.03;;;19.53;56.03
28000;BME280;15328;50.860;10.562;2022-10-17T18:27:09;97396.75;;;19.45;55.98
28000;BME280;15328;50.860;10.562;2022-10-17T18:32:12;97406.31;;;19.36;56.21
28000;BME280;15328;50.860;10.562;2022-10-17T18:37:13;97408.06;;;19.25;56.65
28000;BME280;15328;50.860;10.562;2022-10-17T18:42:13;97418.13;;;19.13;57.28
28000;BME280;15328;50.860;10.562;2022-10-17T18:47:14;97419.88;;;19.02;57.28
28000;BME280;15328;50.860;10.562;2022-10-17T18:52:14;97422.09;;;18.89;57.82
28000;BME280;15328;50.860;10.562;2022-10-17T18:57:15;97429.78;;;18.80;58.11
28000;BME280;15328;50.860;10.562;2022-10-17T19:02:15;97431.59;;;18.74;58.80
28000;BME280;15328;50.860;10.562;2022-10-17T19:07:15;97426.63;;;18.66;58.77
28000;BME280;15328;50.860;10.562;2022-10-17T19:12:19;97433.09;;;18.53;59.87
28000;BME280;15328;50.860;10.562;2022-10-17T19:17:19;97434.16;;;18.52;59.73
28000;BME280;15328;50.860;10.562;2022-10-17T19:22:20;97433.44;;;18.40;60.67
28000;BME280;15328;50.860;10.562;2022-10-17T19:27:20;97436.50;;;18.32;60.70
28000;BME280;15328;50.860;10.562;2022-10-17T19:32:21;97433.16;;;18.25;60.74
28000;BME280;15328;50.860;10.562;2022-10-17T19:37:21;97435.28;;;18.23;61.05
28000;BME280;15328;50.860;10.562;2022-10-17T19:42:21;97433.88;;;18.20;61.07
28000;BME280;15328;50.860;10.562;2022-10-17T19:47:22;97440.41;;;18.25;61.09
28000;BME280;15328;50.860;10.562;2022-10-17T19:52:22;97432.91;;;18.27;61.06
28000;BME280;15328;50.860;10.562;2022-10-17T19:57:23;97442.38;;;18.29;60.96
28000;BME280;15328;50.860;10.562;2022-10-17T20:02:24;97441.06;;;18.15;61.71
28000;BME280;15328;50.860;10.562;2022-10-17T20:07:25;97442.38;;;18.12;61.83
28000;BME280;15328;50.860;10.562;2022-10-17T20:12:25;97445.88;;;18.13;61.55
28000;BME280;15328;50.860;10.562;2022-10-17T20:17:29;97450.03;;;18.20;61.34
28000;BME280;15328;50.860;10.562;2022-10-17T20:22:29;97456.72;;;18.18;61.36
28000;BME280;15328;50.860;10.562;2022-10-17T20:27:29;97454.28;;;18.16;61.31
28000;BME280;15328;50.860;10.562;2022-10-17T20:32:31;97459.22;;;18.08;61.87
28000;BME280;15328;50.860;10.562;2022-10-17T20:37:35;97459.81;;;18.10;61.98
28000;BME280;15328;50.860;10.562;2022-10-17T20:42:35;97455.25;;;18.10;62.03
28000;BME280;15328;50.860;10.562;2022-10-17T20:47:36;97454.19;;;18.11;62.34
28000;BME280;15328;50.860;10.562;2022-10-17T20:52:37;97463.78;;;18.07;62.56
28000;BME280;15328;50.860;10.562;2022-10-17T20:57:37;97463.56;;;18.09;62.70
28000;BME280;15328;50.860;10.562;2022-10-17T21:02:38;97467.16;;;18.14;62.38
28000;BME280;15328;50.860;10.562;2022-10-17T21:07:38;97469.13;;;18.19;62.02
28000;BME280;15328;50.860;10.562;2022-10-17T21:12:38;97462.13;;;18.18;62.15
28000;BME280;15328;50.860;10.562;2022-10-17T21:17:39;97474.44;;;18.14;62.60
28000;BME280;15328;50.860;10.562;2022-10-17T21:22:39;97457.78;;;18.17;61.83
28000;BME280;15328;50.860;10.562;2022-10-17T21:27:39;97459.56;;;18.11;62.05
28000;BME280;15328;50.860;10.562;2022-10-17T21:32:40;97454.47;;;17.98;62.19
28000;BME280;15328;50.860;10.562;2022-10-17T21:37:40;97456.50;;;17.91;62.41
28000;BME280;15328;50.860;10.562;2022-10-17T21:42:40;97458.50;;;17.84;62.94
28000;BME280;15328;50.860;10.562;2022-10-17T21:47:41;97453.13;;;17.84;62.89
28000;BME280;15328;50.860;10.562;2022-10-17T21:52:41;97440.97;;;17.81;63.04
28000;BME280;15328;50.860;10.562;2022-10-17T21:57:42;97445.28;;;17.82;63.16
28000;BME280;15328;50.860;10.562;2022-10-17T22:02:42;97435.78;;;17.80;63.41
28000;BME280;15328;50.860;10.562;2022-10-17T22:07:42;97451.38;;;17.78;63.50
28000;BME280;15328;50.860;10.562;2022-10-17T22:12:43;97455.69;;;17.79;63.64
28000;BME280;15328;50.860;10.562;2022-10-17T22:17:43;97454.19;;;17.71;64.29
28000;BME280;15328;50.860;10.562;2022-10-17T22:22:43;97453.97;;;17.73;64.41
28000;BME280;15328;50.860;10.562;2022-10-17T22:27:44;97457.31;;;17.80;64.17
28000;BME280;15328;50.860;10.562;2022-10-17T22:32:44;97449.63;;;17.83;64.05
28000;BME280;15328;50.860;10.562;2022-10-17T22:37:44;97446.94;;;17.83;64.34
28000;BME280;15328;50.860;10.562;2022-10-17T22:42:45;97460.97;;;17.85;64.56
28000;BME280;15328;50.860;10.562;2022-10-17T22:47:45;97464.72;;;17.84;64.59
28000;BME280;15328;50.860;10.562;2022-10-17T22:52:45;97464.13;;;17.82;64.60
28000;BME280;15328;50.860;10.562;2022-10-17T22:57:46;97464.22;;;17.87;64.64
28000;BME280;15328;50.860;10.562;2022-10-17T23:02:46;97464.22;;;17.87;64.21
28000;BME280;15328;50.860;10.562;2022-10-17T23:07:46;97463.41;;;17.87;64.43
28000;BME280;15328;50.860;10.562;2022-10-17T23:12:47;97468.78;;;17.87;64.62
28000;BME280;15328;50.860;10.562;2022-10-17T23:17:47;97460.72;;;17.87;64.93
28000;BME280;15328;50.860;10.562;2022-10-17T23:22:47;97462.13;;;17.89;64.84
28000;BME280;15328;50.860;10.562;2022-10-17T23:27:47;97455.66;;;17.90;64.82
28000;BME280;15328;50.860;10.562;2022-10-17T23:32:48;97455.44;;;17.92;64.99
28000;BME280;15328;50.860;10.562;2022-10-17T23:37:48;97456.25;;;17.92;65.20
28000;BME280;15328;50.860;10.562;2022-10-17T23:42:49;97452.34;;;18.00;64.99
28000;BME280;15328;50.860;10.562;2022-10-17T23:47:49;97453.75;;;18.03;64.86
28000;BME280;15328;50.860;10.562;2022-10-17T23:52:49;97448.44;;;18.08;64.74
28000;BME280;15328;50.860;10.562;2022-10-17T23:57:50;97445.31;;;18.11;64.58
